Pardeesville, Pennsylvania
Current Conditions -  °F | °C
As of 7:35 AM on Thursday 23 Oct 2014 (Local Time) from KHZL Reporting Station
Drizzle Drizzle  
Wind Chill: 40°   Ceiling: 700
Heat Index: 45°   Visibility: 10mi
Dew Point: 43°   Wind: 9mph
Humidity: 93%   Direction: 310°NW
Pressure: 29.87"   Gusts: NA
Location:  41°N, 75.97°W
Report Text: KHZL 231135Z AUTO 31008KT 10SM -DZ OVC007 07/06 A2987 RMK AO2
Loading
Personal Weather Stations






























Interactive Weather Map
Tropical Storm Tracking
New forecast layout! Learn more

10-Day Weather Forecast

Advertisements
Track Severe Weather on mobile